sensor_id;sensor_type;location;lat;lon;timestamp;temperature;humidity
24518;DHT22;12678;51.336;12.406;2023-05-08T00:00:23;7.90;99.90
24518;DHT22;12678;51.336;12.406;2023-05-08T00:02:49;7.90;99.90
24518;DHT22;12678;51.336;12.406;2023-05-08T00:05:15;8.00;99.90
24518;DHT22;12678;51.336;12.406;2023-05-08T00:07:41;8.00;99.90
24518;DHT22;12678;51.336;12.406;2023-05-08T00:10:08;7.80;99.90
24518;DHT22;12678;51.336;12.406;2023-05-08T00:12:34;7.90;99.90
24518;DHT22;12678;51.336;12.406;2023-05-08T00:15:00;7.90;99.90
24518;DHT22;12678;51.336;12.406;2023-05-08T00:17:26;7.90;99.90
24518;DHT22;12678;51.336;12.406;2023-05-08T00:19:52;7.90;99.90
24518;DHT22;12678;51.336;12.406;2023-05-08T00:22:18;7.90;99.90
24518;DHT22;12678;51.336;12.406;2023-05-08T00:24:44;7.90;99.90
24518;DHT22;12678;51.336;12.406;2023-05-08T00:27:09;7.80;99.90
24518;DHT22;12678;51.336;12.406;2023-05-08T00:29:35;7.80;99.90
24518;DHT22;12678;51.336;12.406;2023-05-08T00:32:01;7.80;99.90
24518;DHT22;12678;51.336;12.406;2023-05-08T00:34:27;7.90;99.90
24518;DHT22;12678;51.336;12.406;2023-05-08T00:36:53;7.90;99.90
24518;DHT22;12678;51.336;12.406;2023-05-08T00:39:20;7.80;99.90
24518;DHT22;12678;51.336;12.406;2023-05-08T00:41:46;7.80;99.90
24518;DHT22;12678;51.336;12.406;2023-05-08T00:44:12;7.80;99.90
24518;DHT22;12678;51.336;12.406;2023-05-08T00:46:39;7.70;99.90
24518;DHT22;12678;51.336;12.406;2023-05-08T00:49:05;7.60;99.90
24518;DHT22;12678;51.336;12.406;2023-05-08T00:51:32;7.50;99.90
24518;DHT22;12678;51.336;12.406;2023-05-08T00:53:59;7.60;99.90
24518;DHT22;12678;51.336;12.406;2023-05-08T00:56:24;7.60;99.90
24518;DHT22;12678;51.336;12.406;2023-05-08T00:58:51;7.50;99.90
24518;DHT22;12678;51.336;12.406;2023-05-08T01:01:17;7.60;99.90
24518;DHT22;12678;51.336;12.406;2023-05-08T01:03:43;7.50;99.90
24518;DHT22;12678;51.336;12.406;2023-05-08T01:06:09;7.60;99.90
24518;DHT22;12678;51.336;12.406;2023-05-08T01:08:35;7.70;99.90
24518;DHT22;12678;51.336;12.406;2023-05-08T01:11:41;7.60;99.90
24518;DHT22;12678;51.336;12.406;2023-05-08T01:14:20;7.60;99.90
24518;DHT22;12678;51.336;12.406;2023-05-08T01:21:53;7.60;99.90
24518;DHT22;12678;51.336;12.406;2023-05-08T01:32:36;7.60;99.90
24518;DHT22;12678;51.336;12.406;2023-05-08T01:37:44;7.60;99.90
24518;DHT22;12678;51.336;12.406;2023-05-08T01:43:28;7.40;99.90
24518;DHT22;12678;51.336;12.406;2023-05-08T01:45:56;7.40;99.90
24518;DHT22;12678;51.336;12.406;2023-05-08T01:48:34;7.30;99.90
24518;DHT22;12678;51.336;12.406;2023-05-08T01:51:06;7.30;99.90
24518;DHT22;12678;51.336;12.406;2023-05-08T01:53:40;7.40;99.90
24518;DHT22;12678;51.336;12.406;2023-05-08T01:56:09;7.30;99.90
24518;DHT22;12678;51.336;12.406;2023-05-08T01:58:36;7.30;99.90
24518;DHT22;12678;51.336;12.406;2023-05-08T02:01:03;7.30;99.90
24518;DHT22;12678;51.336;12.406;2023-05-08T02:03:30;7.30;99.90
24518;DHT22;12678;51.336;12.406;2023-05-08T02:05:59;7.20;99.90
24518;DHT22;12678;51.336;12.406;2023-05-08T02:08:25;7.20;99.90
24518;DHT22;12678;51.336;12.406;2023-05-08T02:10:55;7.10;99.90
24518;DHT22;12678;51.336;12.406;2023-05-08T02:13:22;7.10;99.90
24518;DHT22;12678;51.336;12.406;2023-05-08T02:15:52;7.00;99.90
24518;DHT22;12678;51.336;12.406;2023-05-08T02:18:20;7.10;99.90
24518;DHT22;12678;51.336;12.406;2023-05-08T02:20:48;7.10;99.90
24518;DHT22;12678;51.336;12.406;2023-05-08T02:23:16;7.20;99.90
24518;DHT22;12678;51.336;12.406;2023-05-08T02:25:42;7.20;99.90
24518;DHT22;12678;51.336;12.406;2023-05-08T02:28:10;7.20;99.90
24518;DHT22;12678;51.336;12.406;2023-05-08T02:30:37;7.10;99.90
24518;DHT22;12678;51.336;12.406;2023-05-08T02:33:07;7.00;99.90
24518;DHT22;12678;51.336;12.406;2023-05-08T02:35:35;6.90;99.90
24518;DHT22;12678;51.336;12.406;2023-05-08T02:38:02;6.90;99.90
24518;DHT22;12678;51.336;12.406;2023-05-08T02:40:35;6.90;99.90
24518;DHT22;12678;51.336;12.406;2023-05-08T02:43:02;6.90;99.90
24518;DHT22;12678;51.336;12.406;2023-05-08T02:45:38;6.80;99.90
24518;DHT22;12678;51.336;12.406;2023-05-08T02:48:18;6.70;99.90
24518;DHT22;12678;51.336;12.406;2023-05-08T02:51:03;6.70;99.90
24518;DHT22;12678;51.336;12.406;2023-05-08T02:53:36;6.60;99.90
24518;DHT22;12678;51.336;12.406;2023-05-08T02:56:16;6.60;99.90
24518;DHT22;12678;51.336;12.406;2023-05-08T02:58:54;6.60;99.90
24518;DHT22;12678;51.336;12.406;2023-05-08T03:01:30;6.60;99.90
24518;DHT22;12678;51.336;12.406;2023-05-08T03:04:07;6.60;99.90
24518;DHT22;12678;51.336;12.406;2023-05-08T03:06:40;6.60;99.90
24518;DHT22;12678;51.336;12.406;2023-05-08T03:09:19;6.60;99.90
24518;DHT22;12678;51.336;12.406;2023-05-08T03:11:48;6.60;99.90
24518;DHT22;12678;51.336;12.406;2023-05-08T03:14:19;6.70;99.90
24518;DHT22;12678;51.336;12.406;2023-05-08T03:16:46;6.70;99.90
24518;DHT22;12678;51.336;12.406;2023-05-08T03:19:25;6.60;99.90
24518;DHT22;12678;51.336;12.406;2023-05-08T03:21:52;6.40;99.90
24518;DHT22;12678;51.336;12.406;2023-05-08T03:24:18;6.40;99.90
24518;DHT22;12678;51.336;12.406;2023-05-08T03:26:45;6.50;99.90
24518;DHT22;12678;51.336;12.406;2023-05-08T03:29:12;6.40;99.90
24518;DHT22;12678;51.336;12.406;2023-05-08T03:31:39;6.40;99.90
24518;DHT22;12678;51.336;12.406;2023-05-08T03:34:07;6.30;99.90
24518;DHT22;12678;51.336;12.406;2023-05-08T03:36:34;6.30;99.90
24518;DHT22;12678;51.336;12.406;2023-05-08T03:39:00;6.20;99.90
24518;DHT22;12678;51.336;12.406;2023-05-08T03:41:26;6.20;99.90
24518;DHT22;12678;51.336;12.406;2023-05-08T03:43:53;6.20;99.90
24518;DHT22;12678;51.336;12.406;2023-05-08T03:46:20;6.10;99.90
24518;DHT22;12678;51.336;12.406;2023-05-08T03:48:47;6.30;99.90
24518;DHT22;12678;51.336;12.406;2023-05-08T03:51:14;6.40;99.90
24518;DHT22;12678;51.336;12.406;2023-05-08T03:53:40;6.30;99.90
24518;DHT22;12678;51.336;12.406;2023-05-08T03:56:07;6.30;99.90
24518;DHT22;12678;51.336;12.406;2023-05-08T04:01:37;6.40;99.90
24518;DHT22;12678;51.336;12.406;2023-05-08T04:04:11;6.40;99.90
24518;DHT22;12678;51.336;12.406;2023-05-08T04:06:45;6.50;99.90
24518;DHT22;12678;51.336;12.406;2023-05-08T04:09:42;6.40;99.90
24518;DHT22;12678;51.336;12.406;2023-05-08T04:12:19;6.60;99.90
24518;DHT22;12678;51.336;12.406;2023-05-08T04:14:52;6.70;99.90
24518;DHT22;12678;51.336;12.406;2023-05-08T04:17:52;6.90;99.90
24518;DHT22;12678;51.336;12.406;2023-05-08T04:20:25;7.00;99.90
24518;DHT22;12678;51.336;12.406;2023-05-08T04:22:51;7.10;99.90
24518;DHT22;12678;51.336;12.406;2023-05-08T04:25:18;7.10;99.90
24518;DHT22;12678;51.336;12.406;2023-05-08T04:27:45;7.50;99.90
24518;DHT22;12678;51.336;12.406;2023-05-08T04:30:11;7.90;99.90
24518;DHT22;12678;51.336;12.406;2023-05-08T04:32:38;8.10;99.90
24518;DHT22;12678;51.336;12.406;2023-05-08T04:35:04;8.60;99.90
24518;DHT22;12678;51.336;12.406;2023-05-08T04:37:30;9.00;99.90
24518;DHT22;12678;51.336;12.406;2023-05-08T04:39:57;9.50;99.90
24518;DHT22;12678;51.336;12.406;2023-05-08T04:42:23;10.30;99.90
24518;DHT22;12678;51.336;12.406;2023-05-08T04:44:50;10.70;99.90
24518;DHT22;12678;51.336;12.406;2023-05-08T04:47:16;10.70;99.90
24518;DHT22;12678;51.336;12.406;2023-05-08T04:49:42;11.00;99.90
24518;DHT22;12678;51.336;12.406;2023-05-08T04:52:07;11.50;99.90
24518;DHT22;12678;51.336;12.406;2023-05-08T04:54:34;11.80;99.90
24518;DHT22;12678;51.336;12.406;2023-05-08T04:56:59;11.50;99.90
24518;DHT22;12678;51.336;12.406;2023-05-08T04:59:25;11.90;99.90
24518;DHT22;12678;51.336;12.406;2023-05-08T05:01:51;12.00;99.90
24518;DHT22;12678;51.336;12.406;2023-05-08T05:04:17;12.30;99.90
24518;DHT22;12678;51.336;12.406;2023-05-08T05:06:43;12.20;99.90
24518;DHT22;12678;51.336;12.406;2023-05-08T05:09:08;12.20;99.90
24518;DHT22;12678;51.336;12.406;2023-05-08T05:11:35;12.40;99.90
24518;DHT22;12678;51.336;12.406;2023-05-08T05:14:00;12.40;99.90
24518;DHT22;12678;51.336;12.406;2023-05-08T05:16:26;12.50;99.90
24518;DHT22;12678;51.336;12.406;2023-05-08T05:18:52;13.00;99.90
24518;DHT22;12678;51.336;12.406;2023-05-08T05:21:18;13.90;99.90
24518;DHT22;12678;51.336;12.406;2023-05-08T05:23:44;14.70;99.90
24518;DHT22;12678;51.336;12.406;2023-05-08T05:26:10;13.80;99.90
24518;DHT22;12678;51.336;12.406;2023-05-08T05:28:36;13.60;99.90
24518;DHT22;12678;51.336;12.406;2023-05-08T05:31:02;13.10;99.90
24518;DHT22;12678;51.336;12.406;2023-05-08T05:33:27;12.20;99.90
24518;DHT22;12678;51.336;12.406;2023-05-08T05:35:53;11.50;99.90
24518;DHT22;12678;51.336;12.406;2023-05-08T05:38:19;11.10;99.90
24518;DHT22;12678;51.336;12.406;2023-05-08T05:40:45;10.80;99.90
24518;DHT22;12678;51.336;12.406;2023-05-08T05:43:10;10.60;99.90
24518;DHT22;12678;51.336;12.406;2023-05-08T05:45:36;10.80;99.90
24518;DHT22;12678;51.336;12.406;2023-05-08T05:48:02;10.90;99.90
24518;DHT22;12678;51.336;12.406;2023-05-08T05:50:28;10.90;99.90
24518;DHT22;12678;51.336;12.406;2023-05-08T05:52:54;10.60;99.90
24518;DHT22;12678;51.336;12.406;2023-05-08T05:55:20;10.40;99.90
24518;DHT22;12678;51.336;12.406;2023-05-08T05:57:46;10.30;99.90
24518;DHT22;12678;51.336;12.406;2023-05-08T06:00:12;10.50;99.90
24518;DHT22;12678;51.336;12.406;2023-05-08T06:02:39;10.30;99.90
24518;DHT22;12678;51.336;12.406;2023-05-08T06:05:07;10.30;99.90
24518;DHT22;12678;51.336;12.406;2023-05-08T06:07:32;10.30;99.90
24518;DHT22;12678;51.336;12.406;2023-05-08T06:09:59;10.20;99.90
24518;DHT22;12678;51.336;12.406;2023-05-08T06:12:25;10.20;99.90
24518;DHT22;12678;51.336;12.406;2023-05-08T06:14:52;10.20;99.90
24518;DHT22;12678;51.336;12.406;2023-05-08T06:17:17;10.20;99.90
24518;DHT22;12678;51.336;12.406;2023-05-08T06:19:43;10.50;99.90
24518;DHT22;12678;51.336;12.406;2023-05-08T06:22:17;11.00;99.90
24518;DHT22;12678;51.336;12.406;2023-05-08T06:24:43;11.70;99.90
24518;DHT22;12678;51.336;12.406;2023-05-08T06:27:09;11.80;99.90
24518;DHT22;12678;51.336;12.406;2023-05-08T06:29:34;12.00;99.90
24518;DHT22;12678;51.336;12.406;2023-05-08T06:32:02;12.00;99.90
24518;DHT22;12678;51.336;12.406;2023-05-08T06:34:28;12.40;99.90
24518;DHT22;12678;51.336;12.406;2023-05-08T06:36:53;12.30;99.90
24518;DHT22;12678;51.336;12.406;2023-05-08T06:39:19;12.20;99.90
24518;DHT22;12678;51.336;12.406;2023-05-08T06:41:48;12.10;99.90
24518;DHT22;12678;51.336;12.406;2023-05-08T06:44:14;12.50;99.90
24518;DHT22;12678;51.336;12.406;2023-05-08T06:46:40;12.50;99.90
24518;DHT22;12678;51.336;12.406;2023-05-08T06:49:06;13.10;99.90
24518;DHT22;12678;51.336;12.406;2023-05-08T06:51:32;13.90;99.90
24518;DHT22;12678;51.336;12.406;2023-05-08T06:54:00;14.30;99.90
24518;DHT22;12678;51.336;12.406;2023-05-08T06:56:26;14.50;99.90
24518;DHT22;12678;51.336;12.406;2023-05-08T06:58:51;14.80;99.90
24518;DHT22;12678;51.336;12.406;2023-05-08T07:01:17;14.50;99.90
24518;DHT22;12678;51.336;12.406;2023-05-08T07:03:43;14.10;99.90
24518;DHT22;12678;51.336;12.406;2023-05-08T07:06:08;14.00;99.90
24518;DHT22;12678;51.336;12.406;2023-05-08T07:08:35;13.70;99.90
24518;DHT22;12678;51.336;12.406;2023-05-08T07:11:00;13.60;99.90
24518;DHT22;12678;51.336;12.406;2023-05-08T07:13:26;13.50;99.90
24518;DHT22;12678;51.336;12.406;2023-05-08T07:15:52;13.40;99.90
24518;DHT22;12678;51.336;12.406;2023-05-08T07:18:18;14.00;99.90
24518;DHT22;12678;51.336;12.406;2023-05-08T07:20:44;13.80;99.90
24518;DHT22;12678;51.336;12.406;2023-05-08T07:23:09;13.40;99.90
24518;DHT22;12678;51.336;12.406;2023-05-08T07:25:35;13.40;99.90
24518;DHT22;12678;51.336;12.406;2023-05-08T07:28:01;13.50;99.90
24518;DHT22;12678;51.336;12.406;2023-05-08T07:30:26;13.60;99.90
24518;DHT22;12678;51.336;12.406;2023-05-08T07:32:52;13.20;99.90
24518;DHT22;12678;51.336;12.406;2023-05-08T07:35:18;13.10;99.90
24518;DHT22;12678;51.336;12.406;2023-05-08T07:37:44;13.00;99.90
24518;DHT22;12678;51.336;12.406;2023-05-08T07:40:09;13.30;99.90
24518;DHT22;12678;51.336;12.406;2023-05-08T07:42:42;13.40;99.90
24518;DHT22;12678;51.336;12.406;2023-05-08T07:45:08;13.70;99.90
24518;DHT22;12678;51.336;12.406;2023-05-08T07:47:34;14.00;99.90
24518;DHT22;12678;51.336;12.406;2023-05-08T07:50:00;14.00;99.90
24518;DHT22;12678;51.336;12.406;2023-05-08T07:52:26;14.10;99.90
24518;DHT22;12678;51.336;12.406;2023-05-08T07:54:51;14.40;99.90
24518;DHT22;12678;51.336;12.406;2023-05-08T07:57:17;14.60;99.90
24518;DHT22;12678;51.336;12.406;2023-05-08T07:59:43;14.50;99.90
24518;DHT22;12678;51.336;12.406;2023-05-08T08:02:08;14.90;99.90
24518;DHT22;12678;51.336;12.406;2023-05-08T08:04:34;15.30;99.90
24518;DHT22;12678;51.336;12.406;2023-05-08T08:07:00;15.70;99.90
24518;DHT22;12678;51.336;12.406;2023-05-08T08:09:25;15.70;99.90
24518;DHT22;12678;51.336;12.406;2023-05-08T08:11:51;16.10;99.90
24518;DHT22;12678;51.336;12.406;2023-05-08T08:14:16;16.00;99.90
24518;DHT22;12678;51.336;12.406;2023-05-08T08:16:42;16.40;99.90
24518;DHT22;12678;51.336;12.406;2023-05-08T08:19:08;16.50;99.90
24518;DHT22;12678;51.336;12.406;2023-05-08T08:21:35;16.40;99.90
24518;DHT22;12678;51.336;12.406;2023-05-08T08:24:00;16.30;99.90
24518;DHT22;12678;51.336;12.406;2023-05-08T08:26:26;16.20;99.90
24518;DHT22;12678;51.336;12.406;2023-05-08T08:28:52;16.30;99.90
24518;DHT22;12678;51.336;12.406;2023-05-08T08:31:17;16.60;99.90
24518;DHT22;12678;51.336;12.406;2023-05-08T08:33:45;16.70;99.90
24518;DHT22;12678;51.336;12.406;2023-05-08T08:36:14;16.30;99.90
24518;DHT22;12678;51.336;12.406;2023-05-08T08:38:40;16.30;99.90
24518;DHT22;12678;51.336;12.406;2023-05-08T08:41:06;17.10;99.90
24518;DHT22;12678;51.336;12.406;2023-05-08T08:43:32;17.10;99.90
24518;DHT22;12678;51.336;12.406;2023-05-08T08:46:08;16.80;99.90
24518;DHT22;12678;51.336;12.406;2023-05-08T08:48:36;16.60;99.90
24518;DHT22;12678;51.336;12.406;2023-05-08T08:51:05;17.00;99.90
24518;DHT22;12678;51.336;12.406;2023-05-08T08:53:36;16.70;99.90
24518;DHT22;12678;51.336;12.406;2023-05-08T08:56:05;16.70;99.90
24518;DHT22;12678;51.336;12.406;2023-05-08T08:58:37;16.50;99.90
24518;DHT22;12678;51.336;12.406;2023-05-08T09:01:04;15.90;99.90
24518;DHT22;12678;51.336;12.406;2023-05-08T09:03:31;16.20;99.90
24518;DHT22;12678;51.336;12.406;2023-05-08T09:06:00;16.30;99.90
24518;DHT22;12678;51.336;12.406;2023-05-08T09:08:27;16.80;99.90
24518;DHT22;12678;51.336;12.406;2023-05-08T09:10:54;16.00;99.90
24518;DHT22;12678;51.336;12.406;2023-05-08T09:13:22;16.00;99.90
24518;DHT22;12678;51.336;12.406;2023-05-08T09:15:48;16.10;99.90
24518;DHT22;12678;51.336;12.406;2023-05-08T09:18:15;16.10;99.90
24518;DHT22;12678;51.336;12.406;2023-05-08T09:20:42;16.90;99.90
24518;DHT22;12678;51.336;12.406;2023-05-08T09:23:09;16.70;99.90
24518;DHT22;12678;51.336;12.406;2023-05-08T09:25:46;16.90;99.90
24518;DHT22;12678;51.336;12.406;2023-05-08T09:28:21;16.80;99.90
24518;DHT22;12678;51.336;12.406;2023-05-08T09:30:58;17.20;99.90
24518;DHT22;12678;51.336;12.406;2023-05-08T09:33:28;17.20;99.70
24518;DHT22;12678;51.336;12.406;2023-05-08T09:35:55;17.30;99.90
24518;DHT22;12678;51.336;12.406;2023-05-08T09:41:10;16.80;99.90
24518;DHT22;12678;51.336;12.406;2023-05-08T09:43:37;17.10;99.90
24518;DHT22;12678;51.336;12.406;2023-05-08T09:46:19;16.20;99.70
24518;DHT22;12678;51.336;12.406;2023-05-08T09:48:46;16.30;99.90
24518;DHT22;12678;51.336;12.406;2023-05-08T09:51:12;16.50;99.90
24518;DHT22;12678;51.336;12.406;2023-05-08T09:53:38;16.90;99.50
24518;DHT22;12678;51.336;12.406;2023-05-08T09:56:04;17.00;99.50
24518;DHT22;12678;51.336;12.406;2023-05-08T09:58:40;16.70;99.40
24518;DHT22;12678;51.336;12.406;2023-05-08T10:01:07;17.00;98.40
24518;DHT22;12678;51.336;12.406;2023-05-08T10:03:49;16.90;98.40
24518;DHT22;12678;51.336;12.406;2023-05-08T10:06:15;16.70;99.50
24518;DHT22;12678;51.336;12.406;2023-05-08T10:08:41;17.00;98.80
24518;DHT22;12678;51.336;12.406;2023-05-08T10:11:19;17.30;98.10
24518;DHT22;12678;51.336;12.406;2023-05-08T10:13:46;17.10;98.30
24518;DHT22;12678;51.336;12.406;2023-05-08T10:16:16;17.00;97.20
24518;DHT22;12678;51.336;12.406;2023-05-08T10:18:47;17.10;97.70
24518;DHT22;12678;51.336;12.406;2023-05-08T10:21:14;17.20;97.30
24518;DHT22;12678;51.336;12.406;2023-05-08T10:23:42;16.90;97.60
24518;DHT22;12678;51.336;12.406;2023-05-08T10:26:13;16.70;97.20
24518;DHT22;12678;51.336;12.406;2023-05-08T10:31:06;17.10;96.80
24518;DHT22;12678;51.336;12.406;2023-05-08T10:33:33;17.40;96.90
24518;DHT22;12678;51.336;12.406;2023-05-08T10:36:00;17.40;96.10
24518;DHT22;12678;51.336;12.406;2023-05-08T10:38:26;17.30;96.10
24518;DHT22;12678;51.336;12.406;2023-05-08T10:40:52;17.10;95.50
24518;DHT22;12678;51.336;12.406;2023-05-08T10:43:23;17.30;95.30
24518;DHT22;12678;51.336;12.406;2023-05-08T10:45:50;17.60;95.40
24518;DHT22;12678;51.336;12.406;2023-05-08T10:48:30;17.60;94.60
24518;DHT22;12678;51.336;12.406;2023-05-08T10:51:25;17.50;94.20
24518;DHT22;12678;51.336;12.406;2023-05-08T10:54:01;17.40;94.20
24518;DHT22;12678;51.336;12.406;2023-05-08T10:56:29;17.60;93.90
24518;DHT22;12678;51.336;12.406;2023-05-08T10:58:58;17.40;93.80
24518;DHT22;12678;51.336;12.406;2023-05-08T11:01:28;17.50;94.30
24518;DHT22;12678;51.336;12.406;2023-05-08T11:03:53;17.40;94.00
24518;DHT22;12678;51.336;12.406;2023-05-08T11:06:45;17.30;93.90
24518;DHT22;12678;51.336;12.406;2023-05-08T11:09:18;17.60;93.70
24518;DHT22;12678;51.336;12.406;2023-05-08T11:11:53;17.30;92.50
24518;DHT22;12678;51.336;12.406;2023-05-08T11:14:20;17.20;93.10
24518;DHT22;12678;51.336;12.406;2023-05-08T11:19:23;17.20;92.70
24518;DHT22;12678;51.336;12.406;2023-05-08T11:22:15;17.10;92.50
24518;DHT22;12678;51.336;12.406;2023-05-08T11:35:47;17.80;90.70
24518;DHT22;12678;51.336;12.406;2023-05-08T11:40:46;18.00;90.10
24518;DHT22;12678;51.336;12.406;2023-05-08T11:46:04;18.30;88.40
24518;DHT22;12678;51.336;12.406;2023-05-08T11:48:31;18.10;87.60
24518;DHT22;12678;51.336;12.406;2023-05-08T11:51:01;18.00;86.40
24518;DHT22;12678;51.336;12.406;2023-05-08T11:53:28;17.90;87.10
24518;DHT22;12678;51.336;12.406;2023-05-08T11:55:56;17.90;86.30
24518;DHT22;12678;51.336;12.406;2023-05-08T11:58:22;18.00;86.70
24518;DHT22;12678;51.336;12.406;2023-05-08T12:00:48;18.20;85.50
24518;DHT22;12678;51.336;12.406;2023-05-08T12:03:16;18.00;84.40
24518;DHT22;12678;51.336;12.406;2023-05-08T12:05:43;18.00;85.00
24518;DHT22;12678;51.336;12.406;2023-05-08T12:08:09;18.00;84.00
24518;DHT22;12678;51.336;12.406;2023-05-08T12:10:55;18.10;85.20
24518;DHT22;12678;51.336;12.406;2023-05-08T12:13:26;18.10;83.40
24518;DHT22;12678;51.336;12.406;2023-05-08T12:15:54;18.00;83.00
24518;DHT22;12678;51.336;12.406;2023-05-08T12:18:21;18.00;83.40
24518;DHT22;12678;51.336;12.406;2023-05-08T12:20:59;18.10;83.90
24518;DHT22;12678;51.336;12.406;2023-05-08T12:23:26;18.10;82.80
24518;DHT22;12678;51.336;12.406;2023-05-08T12:25:53;18.00;81.60
24518;DHT22;12678;51.336;12.406;2023-05-08T12:28:19;17.80;82.20
24518;DHT22;12678;51.336;12.406;2023-05-08T12:30:45;17.60;82.70
24518;DHT22;12678;51.336;12.406;2023-05-08T12:33:12;17.80;83.30
24518;DHT22;12678;51.336;12.406;2023-05-08T12:35:40;18.00;83.00
24518;DHT22;12678;51.336;12.406;2023-05-08T12:38:07;18.00;82.40
24518;DHT22;12678;51.336;12.406;2023-05-08T12:40:39;18.10;79.20
24518;DHT22;12678;51.336;12.406;2023-05-08T12:43:05;18.20;79.20
24518;DHT22;12678;51.336;12.406;2023-05-08T12:45:32;18.30;79.70
24518;DHT22;12678;51.336;12.406;2023-05-08T12:48:03;18.40;77.80
24518;DHT22;12678;51.336;12.406;2023-05-08T12:50:51;18.40;78.10
24518;DHT22;12678;51.336;12.406;2023-05-08T12:53:18;18.40;76.50
24518;DHT22;12678;51.336;12.406;2023-05-08T12:55:52;18.40;76.10
24518;DHT22;12678;51.336;12.406;2023-05-08T12:58:18;18.30;76.60
24518;DHT22;12678;51.336;12.406;2023-05-08T13:00:46;18.50;75.80
24518;DHT22;12678;51.336;12.406;2023-05-08T13:03:21;18.60;74.60
24518;DHT22;12678;51.336;12.406;2023-05-08T13:05:48;18.50;74.40
24518;DHT22;12678;51.336;12.406;2023-05-08T13:08:14;18.70;74.70
24518;DHT22;12678;51.336;12.406;2023-05-08T13:10:46;18.80;73.40
24518;DHT22;12678;51.336;12.406;2023-05-08T13:13:13;18.90;72.00
24518;DHT22;12678;51.336;12.406;2023-05-08T13:15:39;18.90;72.70
24518;DHT22;12678;51.336;12.406;2023-05-08T13:18:05;18.80;71.60
24518;DHT22;12678;51.336;12.406;2023-05-08T13:20:32;18.80;71.30
24518;DHT22;12678;51.336;12.406;2023-05-08T13:22:58;18.90;70.80
24518;DHT22;12678;51.336;12.406;2023-05-08T13:25:24;18.90;69.60
24518;DHT22;12678;51.336;12.406;2023-05-08T13:27:49;18.90;69.00
24518;DHT22;12678;51.336;12.406;2023-05-08T13:30:15;19.00;69.00
24518;DHT22;12678;51.336;12.406;2023-05-08T13:32:41;19.00;68.30
24518;DHT22;12678;51.336;12.406;2023-05-08T13:35:07;19.00;68.50
24518;DHT22;12678;51.336;12.406;2023-05-08T13:37:33;18.90;67.40
24518;DHT22;12678;51.336;12.406;2023-05-08T13:39:59;18.90;66.60
24518;DHT22;12678;51.336;12.406;2023-05-08T13:42:24;18.90;67.30
24518;DHT22;12678;51.336;12.406;2023-05-08T13:44:50;18.80;67.20
24518;DHT22;12678;51.336;12.406;2023-05-08T13:47:15;18.80;68.00
24518;DHT22;12678;51.336;12.406;2023-05-08T13:49:41;18.80;67.90
24518;DHT22;12678;51.336;12.406;2023-05-08T13:52:08;18.90;68.50
24518;DHT22;12678;51.336;12.406;2023-05-08T13:54:34;18.90;66.60
24518;DHT22;12678;51.336;12.406;2023-05-08T13:57:00;18.80;64.80
24518;DHT22;12678;51.336;12.406;2023-05-08T13:59:27;18.80;65.20
24518;DHT22;12678;51.336;12.406;2023-05-08T14:01:53;18.80;66.30
24518;DHT22;12678;51.336;12.406;2023-05-08T14:04:19;18.80;66.50
24518;DHT22;12678;51.336;12.406;2023-05-08T14:06:45;18.90;67.30
24518;DHT22;12678;51.336;12.406;2023-05-08T14:09:10;18.90;67.00
24518;DHT22;12678;51.336;12.406;2023-05-08T14:11:36;18.90;67.00
24518;DHT22;12678;51.336;12.406;2023-05-08T14:14:02;19.00;68.40
24518;DHT22;12678;51.336;12.406;2023-05-08T14:16:27;19.00;67.10
24518;DHT22;12678;51.336;12.406;2023-05-08T14:18:53;19.00;66.20
24518;DHT22;12678;51.336;12.406;2023-05-08T14:21:19;19.10;66.10
24518;DHT22;12678;51.336;12.406;2023-05-08T14:23:44;19.10;65.20
24518;DHT22;12678;51.336;12.406;2023-05-08T14:26:10;19.00;63.90
24518;DHT22;12678;51.336;12.406;2023-05-08T14:28:36;18.90;64.50
24518;DHT22;12678;51.336;12.406;2023-05-08T14:31:02;18.90;65.90
24518;DHT22;12678;51.336;12.406;2023-05-08T14:33:28;18.80;66.60
24518;DHT22;12678;51.336;12.406;2023-05-08T14:35:53;18.80;67.00
24518;DHT22;12678;51.336;12.406;2023-05-08T14:38:19;18.70;67.40
24518;DHT22;12678;51.336;12.406;2023-05-08T14:40:44;18.60;67.60
24518;DHT22;12678;51.336;12.406;2023-05-08T14:43:13;18.60;68.20
24518;DHT22;12678;51.336;12.406;2023-05-08T14:45:39;18.60;68.90
24518;DHT22;12678;51.336;12.406;2023-05-08T14:48:05;18.60;69.50
24518;DHT22;12678;51.336;12.406;2023-05-08T14:50:30;18.60;69.70
24518;DHT22;12678;51.336;12.406;2023-05-08T14:52:56;18.70;68.00
24518;DHT22;12678;51.336;12.406;2023-05-08T14:55:22;18.60;67.90
24518;DHT22;12678;51.336;12.406;2023-05-08T14:57:50;18.60;67.60
24518;DHT22;12678;51.336;12.406;2023-05-08T15:00:17;18.50;68.00
24518;DHT22;12678;51.336;12.406;2023-05-08T15:02:43;18.60;68.40
24518;DHT22;12678;51.336;12.406;2023-05-08T15:05:09;18.60;69.30
24518;DHT22;12678;51.336;12.406;2023-05-08T15:07:35;18.60;69.00
24518;DHT22;12678;51.336;12.406;2023-05-08T15:10:02;18.60;69.20
24518;DHT22;12678;51.336;12.406;2023-05-08T15:12:28;18.60;68.90
24518;DHT22;12678;51.336;12.406;2023-05-08T15:14:53;18.60;69.70
24518;DHT22;12678;51.336;12.406;2023-05-08T15:17:19;18.60;70.00
24518;DHT22;12678;51.336;12.406;2023-05-08T15:19:45;18.60;70.00
24518;DHT22;12678;51.336;12.406;2023-05-08T15:22:11;18.60;70.60
24518;DHT22;12678;51.336;12.406;2023-05-08T15:24:37;18.60;71.70
24518;DHT22;12678;51.336;12.406;2023-05-08T15:27:02;18.60;72.40
24518;DHT22;12678;51.336;12.406;2023-05-08T15:29:28;18.60;71.70
24518;DHT22;12678;51.336;12.406;2023-05-08T15:31:54;18.50;72.30
24518;DHT22;12678;51.336;12.406;2023-05-08T15:34:20;18.50;72.90
24518;DHT22;12678;51.336;12.406;2023-05-08T15:36:46;18.50;73.30
24518;DHT22;12678;51.336;12.406;2023-05-08T15:39:12;18.60;73.40
24518;DHT22;12678;51.336;12.406;2023-05-08T15:41:38;18.50;73.30
24518;DHT22;12678;51.336;12.406;2023-05-08T15:44:06;18.50;73.00
24518;DHT22;12678;51.336;12.406;2023-05-08T15:46:32;18.50;73.30
24518;DHT22;12678;51.336;12.406;2023-05-08T15:48:57;18.50;73.10
24518;DHT22;12678;51.336;12.406;2023-05-08T15:51:23;18.40;73.60
24518;DHT22;12678;51.336;12.406;2023-05-08T15:53:49;18.50;74.20
24518;DHT22;12678;51.336;12.406;2023-05-08T15:56:16;18.50;74.70
24518;DHT22;12678;51.336;12.406;2023-05-08T15:58:42;18.50;75.30
24518;DHT22;12678;51.336;12.406;2023-05-08T16:01:08;18.50;77.00
24518;DHT22;12678;51.336;12.406;2023-05-08T16:03:33;18.50;78.20
24518;DHT22;12678;51.336;12.406;2023-05-08T16:05:59;18.60;79.70
24518;DHT22;12678;51.336;12.406;2023-05-08T16:08:26;18.50;80.60
24518;DHT22;12678;51.336;12.406;2023-05-08T16:10:53;18.50;81.00